sensor_id;sensor_type;location;lat;lon;timestamp;temperature;humidity
68764;DHT22;55754;52.038;5.566;2022-07-29T00:00:07;19.10;53.30
68764;DHT22;55754;52.038;5.566;2022-07-29T00:02:33;19.10;53.30
68764;DHT22;55754;52.038;5.566;2022-07-29T00:04:59;19.20;53.40
68764;DHT22;55754;52.038;5.566;2022-07-29T00:07:25;19.10;53.50
68764;DHT22;55754;52.038;5.566;2022-07-29T00:09:50;19.10;53.50
68764;DHT22;55754;52.038;5.566;2022-07-29T00:12:16;19.00;53.80
68764;DHT22;55754;52.038;5.566;2022-07-29T00:14:41;19.00;53.80
68764;DHT22;55754;52.038;5.566;2022-07-29T00:17:07;19.00;54.90
68764;DHT22;55754;52.038;5.566;2022-07-29T00:19:33;19.00;54.00
68764;DHT22;55754;52.038;5.566;2022-07-29T00:21:59;19.00;54.00
68764;DHT22;55754;52.038;5.566;2022-07-29T00:24:25;19.00;54.10
68764;DHT22;55754;52.038;5.566;2022-07-29T00:26:51;18.90;54.30
68764;DHT22;55754;52.038;5.566;2022-07-29T00:29:17;18.90;54.30
68764;DHT22;55754;52.038;5.566;2022-07-29T00:31:43;19.00;54.40
68764;DHT22;55754;52.038;5.566;2022-07-29T00:34:08;18.90;54.60
68764;DHT22;55754;52.038;5.566;2022-07-29T00:36:54;18.90;54.60
68764;DHT22;55754;52.038;5.566;2022-07-29T00:39:20;18.90;54.60
68764;DHT22;55754;52.038;5.566;2022-07-29T00:41:45;18.90;54.70
68764;DHT22;55754;52.038;5.566;2022-07-29T00:44:11;18.80;54.90
68764;DHT22;55754;52.038;5.566;2022-07-29T00:46:36;18.80;55.00
68764;DHT22;55754;52.038;5.566;2022-07-29T00:49:02;18.70;55.00
68764;DHT22;55754;52.038;5.566;2022-07-29T00:51:28;18.70;55.10
68764;DHT22;55754;52.038;5.566;2022-07-29T00:53:56;18.70;55.30
68764;DHT22;55754;52.038;5.566;2022-07-29T00:56:22;18.70;55.30
68764;DHT22;55754;52.038;5.566;2022-07-29T00:58:48;18.70;55.30
68764;DHT22;55754;52.038;5.566;2022-07-29T01:01:14;18.70;55.30
68764;DHT22;55754;52.038;5.566;2022-07-29T01:03:39;18.70;55.40
68764;DHT22;55754;52.038;5.566;2022-07-29T01:06:05;18.70;55.50
68764;DHT22;55754;52.038;5.566;2022-07-29T01:08:32;18.70;55.60
68764;DHT22;55754;52.038;5.566;2022-07-29T01:10:59;18.60;55.60
68764;DHT22;55754;52.038;5.566;2022-07-29T01:13:26;18.60;55.60
68764;DHT22;55754;52.038;5.566;2022-07-29T01:16:04;18.60;55.70
68764;DHT22;55754;52.038;5.566;2022-07-29T01:18:34;18.60;55.80
68764;DHT22;55754;52.038;5.566;2022-07-29T01:21:33;18.60;55.90
68764;DHT22;55754;52.038;5.566;2022-07-29T01:27:04;18.50;56.10
68764;DHT22;55754;52.038;5.566;2022-07-29T01:29:39;18.50;57.20
68764;DHT22;55754;52.038;5.566;2022-07-29T01:32:18;18.40;56.20
68764;DHT22;55754;52.038;5.566;2022-07-29T01:34:53;18.40;56.30
68764;DHT22;55754;52.038;5.566;2022-07-29T01:37:38;18.40;56.40
68764;DHT22;55754;52.038;5.566;2022-07-29T01:40:08;18.40;56.40
68764;DHT22;55754;52.038;5.566;2022-07-29T01:42:42;18.40;56.30
68764;DHT22;55754;52.038;5.566;2022-07-29T01:45:15;18.40;56.30
68764;DHT22;55754;52.038;5.566;2022-07-29T01:50:14;18.40;56.30
68764;DHT22;55754;52.038;5.566;2022-07-29T01:52:58;18.40;56.40
68764;DHT22;55754;52.038;5.566;2022-07-29T01:55:28;18.40;56.70
68764;DHT22;55754;52.038;5.566;2022-07-29T01:57:56;18.40;57.40
68764;DHT22;55754;52.038;5.566;2022-07-29T02:00:23;18.30;56.60
68764;DHT22;55754;52.038;5.566;2022-07-29T02:02:49;18.30;56.50
68764;DHT22;55754;52.038;5.566;2022-07-29T02:05:17;18.30;56.50
68764;DHT22;55754;52.038;5.566;2022-07-29T02:07:46;18.30;56.50
68764;DHT22;55754;52.038;5.566;2022-07-29T02:10:14;18.30;56.60
68764;DHT22;55754;52.038;5.566;2022-07-29T02:12:43;18.30;57.60
68764;DHT22;55754;52.038;5.566;2022-07-29T02:15:11;18.40;56.60
68764;DHT22;55754;52.038;5.566;2022-07-29T02:17:45;18.40;56.60
68764;DHT22;55754;52.038;5.566;2022-07-29T02:20:14;18.40;56.70
68764;DHT22;55754;52.038;5.566;2022-07-29T02:22:42;18.40;56.60
68764;DHT22;55754;52.038;5.566;2022-07-29T02:25:10;18.30;56.60
68764;DHT22;55754;52.038;5.566;2022-07-29T02:27:37;18.30;56.60
68764;DHT22;55754;52.038;5.566;2022-07-29T02:30:06;18.30;56.70
68764;DHT22;55754;52.038;5.566;2022-07-29T02:32:34;18.30;56.70
68764;DHT22;55754;52.038;5.566;2022-07-29T02:35:01;18.30;56.80
68764;DHT22;55754;52.038;5.566;2022-07-29T02:37:28;18.30;56.70
68764;DHT22;55754;52.038;5.566;2022-07-29T02:39:55;18.30;56.80
68764;DHT22;55754;52.038;5.566;2022-07-29T02:42:23;18.20;56.90
68764;DHT22;55754;52.038;5.566;2022-07-29T02:44:49;18.30;56.90
68764;DHT22;55754;52.038;5.566;2022-07-29T02:47:32;18.30;57.00
68764;DHT22;55754;52.038;5.566;2022-07-29T02:50:11;18.30;57.00
68764;DHT22;55754;52.038;5.566;2022-07-29T02:52:56;18.20;57.00
68764;DHT22;55754;52.038;5.566;2022-07-29T02:55:40;18.20;57.20
68764;DHT22;55754;52.038;5.566;2022-07-29T02:58:31;18.10;57.30
68764;DHT22;55754;52.038;5.566;2022-07-29T03:01:01;18.10;57.50
68764;DHT22;55754;52.038;5.566;2022-07-29T03:03:29;18.10;57.20
68764;DHT22;55754;52.038;5.566;2022-07-29T03:05:56;18.10;57.40
68764;DHT22;55754;52.038;5.566;2022-07-29T03:08:23;18.10;57.50
68764;DHT22;55754;52.038;5.566;2022-07-29T03:10:50;18.10;57.50
68764;DHT22;55754;52.038;5.566;2022-07-29T03:13:16;18.00;57.50
68764;DHT22;55754;52.038;5.566;2022-07-29T03:15:43;18.00;57.50
68764;DHT22;55754;52.038;5.566;2022-07-29T03:18:09;18.10;57.60
68764;DHT22;55754;52.038;5.566;2022-07-29T03:20:37;18.00;57.50
68764;DHT22;55754;52.038;5.566;2022-07-29T03:23:03;18.10;57.60
68764;DHT22;55754;52.038;5.566;2022-07-29T03:25:30;18.00;57.60
68764;DHT22;55754;52.038;5.566;2022-07-29T03:27:55;18.00;57.80
68764;DHT22;55754;52.038;5.566;2022-07-29T03:30:22;17.90;57.70
68764;DHT22;55754;52.038;5.566;2022-07-29T03:32:49;17.90;57.90
68764;DHT22;55754;52.038;5.566;2022-07-29T03:35:15;17.90;57.90
68764;DHT22;55754;52.038;5.566;2022-07-29T03:37:48;17.90;57.90
68764;DHT22;55754;52.038;5.566;2022-07-29T03:40:18;17.90;58.00
68764;DHT22;55754;52.038;5.566;2022-07-29T03:42:45;17.90;58.20
68764;DHT22;55754;52.038;5.566;2022-07-29T03:45:15;17.90;58.10
68764;DHT22;55754;52.038;5.566;2022-07-29T03:48:05;17.90;58.20
68764;DHT22;55754;52.038;5.566;2022-07-29T03:50:33;17.80;58.50
68764;DHT22;55754;52.038;5.566;2022-07-29T03:53:00;17.80;58.40
68764;DHT22;55754;52.038;5.566;2022-07-29T03:55:28;17.80;58.30
68764;DHT22;55754;52.038;5.566;2022-07-29T03:57:55;17.80;58.30
68764;DHT22;55754;52.038;5.566;2022-07-29T04:00:23;17.80;58.40
68764;DHT22;55754;52.038;5.566;2022-07-29T04:02:49;17.80;58.40
68764;DHT22;55754;52.038;5.566;2022-07-29T04:05:17;17.70;58.60
68764;DHT22;55754;52.038;5.566;2022-07-29T04:07:46;17.70;58.60
68764;DHT22;55754;52.038;5.566;2022-07-29T04:10:13;17.70;58.90
68764;DHT22;55754;52.038;5.566;2022-07-29T04:12:41;17.60;58.90
68764;DHT22;55754;52.038;5.566;2022-07-29T04:15:07;17.60;59.00
68764;DHT22;55754;52.038;5.566;2022-07-29T04:17:33;17.60;59.10
68764;DHT22;55754;52.038;5.566;2022-07-29T04:19:59;17.60;59.30
68764;DHT22;55754;52.038;5.566;2022-07-29T04:22:24;17.50;59.30
68764;DHT22;55754;52.038;5.566;2022-07-29T04:24:50;17.60;59.30
68764;DHT22;55754;52.038;5.566;2022-07-29T04:27:16;17.60;59.30
68764;DHT22;55754;52.038;5.566;2022-07-29T04:29:41;17.60;59.20
68764;DHT22;55754;52.038;5.566;2022-07-29T04:32:07;17.60;59.30
68764;DHT22;55754;52.038;5.566;2022-07-29T04:34:33;17.60;59.40
68764;DHT22;55754;52.038;5.566;2022-07-29T04:36:58;17.50;59.50
68764;DHT22;55754;52.038;5.566;2022-07-29T04:39:25;17.50;59.50
68764;DHT22;55754;52.038;5.566;2022-07-29T04:41:51;17.50;59.50
68764;DHT22;55754;52.038;5.566;2022-07-29T04:44:17;17.50;59.50
68764;DHT22;55754;52.038;5.566;2022-07-29T04:46:42;17.50;59.30
68764;DHT22;55754;52.038;5.566;2022-07-29T04:49:08;17.50;59.30
68764;DHT22;55754;52.038;5.566;2022-07-29T04:51:34;17.50;59.40
68764;DHT22;55754;52.038;5.566;2022-07-29T04:54:00;17.50;59.50
68764;DHT22;55754;52.038;5.566;2022-07-29T04:56:26;17.50;59.50
68764;DHT22;55754;52.038;5.566;2022-07-29T04:58:51;17.50;59.50
68764;DHT22;55754;52.038;5.566;2022-07-29T05:01:17;17.50;60.40
68764;DHT22;55754;52.038;5.566;2022-07-29T05:03:43;17.50;59.50
68764;DHT22;55754;52.038;5.566;2022-07-29T05:06:10;17.50;59.60
68764;DHT22;55754;52.038;5.566;2022-07-29T05:08:36;17.50;59.60
68764;DHT22;55754;52.038;5.566;2022-07-29T05:11:02;17.50;59.60
68764;DHT22;55754;52.038;5.566;2022-07-29T05:13:27;17.50;59.70
68764;DHT22;55754;52.038;5.566;2022-07-29T05:15:53;17.60;59.60
68764;DHT22;55754;52.038;5.566;2022-07-29T05:18:19;17.50;59.60
68764;DHT22;55754;52.038;5.566;2022-07-29T05:20:44;17.60;59.70
68764;DHT22;55754;52.038;5.566;2022-07-29T05:23:10;17.60;59.70
68764;DHT22;55754;52.038;5.566;2022-07-29T05:25:38;17.60;59.80
68764;DHT22;55754;52.038;5.566;2022-07-29T05:28:04;17.60;59.60
68764;DHT22;55754;52.038;5.566;2022-07-29T05:30:29;17.60;59.60
68764;DHT22;55754;52.038;5.566;2022-07-29T05:32:55;17.60;59.70
68764;DHT22;55754;52.038;5.566;2022-07-29T05:35:21;17.70;59.80
68764;DHT22;55754;52.038;5.566;2022-07-29T05:37:46;17.70;59.80
68764;DHT22;55754;52.038;5.566;2022-07-29T05:40:12;17.60;59.80
68764;DHT22;55754;52.038;5.566;2022-07-29T05:42:38;17.60;60.00
68764;DHT22;55754;52.038;5.566;2022-07-29T05:45:04;17.60;59.90
68764;DHT22;55754;52.038;5.566;2022-07-29T05:47:30;17.60;59.90
68764;DHT22;55754;52.038;5.566;2022-07-29T05:49:56;17.70;60.00
68764;DHT22;55754;52.038;5.566;2022-07-29T05:52:22;17.70;60.10
68764;DHT22;55754;52.038;5.566;2022-07-29T05:54:47;17.70;60.10
68764;DHT22;55754;52.038;5.566;2022-07-29T05:57:21;17.70;60.10
68764;DHT22;55754;52.038;5.566;2022-07-29T05:59:47;17.70;60.30
68764;DHT22;55754;52.038;5.566;2022-07-29T06:02:13;17.70;60.30
68764;DHT22;55754;52.038;5.566;2022-07-29T06:04:39;17.70;60.20
68764;DHT22;55754;52.038;5.566;2022-07-29T06:07:05;17.70;60.10
68764;DHT22;55754;52.038;5.566;2022-07-29T06:09:32;17.70;60.30
68764;DHT22;55754;52.038;5.566;2022-07-29T06:11:57;17.70;60.20
68764;DHT22;55754;52.038;5.566;2022-07-29T06:14:24;17.80;60.40
68764;DHT22;55754;52.038;5.566;2022-07-29T06:16:49;17.80;60.40
68764;DHT22;55754;52.038;5.566;2022-07-29T06:19:15;17.80;60.50
68764;DHT22;55754;52.038;5.566;2022-07-29T06:21:42;17.90;60.40
68764;DHT22;55754;52.038;5.566;2022-07-29T06:24:08;17.80;60.30
68764;DHT22;55754;52.038;5.566;2022-07-29T06:26:33;17.90;60.50
68764;DHT22;55754;52.038;5.566;2022-07-29T06:28:59;17.90;60.40
68764;DHT22;55754;52.038;5.566;2022-07-29T06:31:25;17.90;60.40
68764;DHT22;55754;52.038;5.566;2022-07-29T06:33:50;17.90;60.40
68764;DHT22;55754;52.038;5.566;2022-07-29T06:36:16;17.90;60.40
68764;DHT22;55754;52.038;5.566;2022-07-29T06:38:42;18.00;60.50
68764;DHT22;55754;52.038;5.566;2022-07-29T06:41:08;18.00;60.50
68764;DHT22;55754;52.038;5.566;2022-07-29T06:43:40;18.00;60.40
68764;DHT22;55754;52.038;5.566;2022-07-29T06:46:09;18.10;60.40
68764;DHT22;55754;52.038;5.566;2022-07-29T06:48:35;18.20;60.20
68764;DHT22;55754;52.038;5.566;2022-07-29T06:51:05;18.40;60.10
68764;DHT22;55754;52.038;5.566;2022-07-29T06:53:31;18.40;60.00
68764;DHT22;55754;52.038;5.566;2022-07-29T06:55:58;18.40;59.90
68764;DHT22;55754;52.038;5.566;2022-07-29T06:58:24;18.40;59.80
68764;DHT22;55754;52.038;5.566;2022-07-29T07:00:51;18.40;59.90
68764;DHT22;55754;52.038;5.566;2022-07-29T07:03:17;18.50;59.90
68764;DHT22;55754;52.038;5.566;2022-07-29T07:05:43;18.40;59.80
68764;DHT22;55754;52.038;5.566;2022-07-29T07:08:10;18.50;59.70
68764;DHT22;55754;52.038;5.566;2022-07-29T07:10:36;18.50;59.50
68764;DHT22;55754;52.038;5.566;2022-07-29T07:13:01;18.60;59.50
68764;DHT22;55754;52.038;5.566;2022-07-29T07:15:27;18.60;59.40
68764;DHT22;55754;52.038;5.566;2022-07-29T07:17:53;18.70;59.30
68764;DHT22;55754;52.038;5.566;2022-07-29T07:20:19;18.70;59.10
68764;DHT22;55754;52.038;5.566;2022-07-29T07:22:44;18.80;59.10
68764;DHT22;55754;52.038;5.566;2022-07-29T07:25:11;19.00;58.90
68764;DHT22;55754;52.038;5.566;2022-07-29T07:27:36;19.40;58.40
68764;DHT22;55754;52.038;5.566;2022-07-29T07:30:04;19.50;57.90
68764;DHT22;55754;52.038;5.566;2022-07-29T07:32:31;19.70;57.50
68764;DHT22;55754;52.038;5.566;2022-07-29T07:34:57;19.60;57.50
68764;DHT22;55754;52.038;5.566;2022-07-29T07:37:24;19.70;57.40
68764;DHT22;55754;52.038;5.566;2022-07-29T07:39:50;19.70;57.20
68764;DHT22;55754;52.038;5.566;2022-07-29T07:42:17;19.50;57.50
68764;DHT22;55754;52.038;5.566;2022-07-29T07:44:42;19.60;57.60
68764;DHT22;55754;52.038;5.566;2022-07-29T07:47:08;19.60;57.50
68764;DHT22;55754;52.038;5.566;2022-07-29T07:49:34;19.70;57.50
68764;DHT22;55754;52.038;5.566;2022-07-29T07:51:59;19.50;57.50
68764;DHT22;55754;52.038;5.566;2022-07-29T07:54:25;19.60;57.60
68764;DHT22;55754;52.038;5.566;2022-07-29T07:56:51;19.70;57.20
68764;DHT22;55754;52.038;5.566;2022-07-29T07:59:16;20.00;57.10
68764;DHT22;55754;52.038;5.566;2022-07-29T08:01:42;20.30;56.60
68764;DHT22;55754;52.038;5.566;2022-07-29T08:04:08;20.50;55.90
68764;DHT22;55754;52.038;5.566;2022-07-29T08:06:34;20.70;55.40
68764;DHT22;55754;52.038;5.566;2022-07-29T08:09:02;20.70;54.90
68764;DHT22;55754;52.038;5.566;2022-07-29T08:11:28;20.60;54.90
68764;DHT22;55754;52.038;5.566;2022-07-29T08:13:54;20.70;54.80
68764;DHT22;55754;52.038;5.566;2022-07-29T08:16:20;20.80;54.60
68764;DHT22;55754;52.038;5.566;2022-07-29T08:18:46;21.00;54.60
68764;DHT22;55754;52.038;5.566;2022-07-29T08:21:15;21.30;54.30
68764;DHT22;55754;52.038;5.566;2022-07-29T08:23:42;21.40;53.90
68764;DHT22;55754;52.038;5.566;2022-07-29T08:26:41;21.70;54.10
68764;DHT22;55754;52.038;5.566;2022-07-29T08:29:06;21.90;53.50
68764;DHT22;55754;52.038;5.566;2022-07-29T08:31:32;22.20;53.00
68764;DHT22;55754;52.038;5.566;2022-07-29T08:33:58;22.30;52.50
68764;DHT22;55754;52.038;5.566;2022-07-29T08:36:25;22.10;53.40
68764;DHT22;55754;52.038;5.566;2022-07-29T08:38:51;22.30;52.20
68764;DHT22;55754;52.038;5.566;2022-07-29T08:41:18;22.50;51.90
68764;DHT22;55754;52.038;5.566;2022-07-29T08:43:45;22.70;51.70
68764;DHT22;55754;52.038;5.566;2022-07-29T08:46:10;22.80;51.60
68764;DHT22;55754;52.038;5.566;2022-07-29T08:48:36;23.10;51.00
68764;DHT22;55754;52.038;5.566;2022-07-29T08:51:02;23.20;50.70
68764;DHT22;55754;52.038;5.566;2022-07-29T08:53:28;23.30;50.70
68764;DHT22;55754;52.038;5.566;2022-07-29T08:55:55;23.40;50.00
68764;DHT22;55754;52.038;5.566;2022-07-29T08:58:21;23.30;50.20
68764;DHT22;55754;52.038;5.566;2022-07-29T09:00:53;23.30;49.50
68764;DHT22;55754;52.038;5.566;2022-07-29T09:03:20;23.20;49.40
68764;DHT22;55754;52.038;5.566;2022-07-29T09:05:48;23.20;49.50
68764;DHT22;55754;52.038;5.566;2022-07-29T09:08:15;23.10;49.70
68764;DHT22;55754;52.038;5.566;2022-07-29T09:10:41;23.20;49.60
68764;DHT22;55754;52.038;5.566;2022-07-29T09:13:06;23.00;49.50
68764;DHT22;55754;52.038;5.566;2022-07-29T09:15:32;23.00;49.80
68764;DHT22;55754;52.038;5.566;2022-07-29T09:17:58;23.00;49.90
68764;DHT22;55754;52.038;5.566;2022-07-29T09:20:25;23.00;49.80
68764;DHT22;55754;52.038;5.566;2022-07-29T09:22:52;23.00;49.70
68764;DHT22;55754;52.038;5.566;2022-07-29T09:25:35;23.00;49.10
68764;DHT22;55754;52.038;5.566;2022-07-29T09:28:12;23.10;49.50
68764;DHT22;55754;52.038;5.566;2022-07-29T09:30:51;23.00;50.00
68764;DHT22;55754;52.038;5.566;2022-07-29T09:33:17;23.00;50.00
68764;DHT22;55754;52.038;5.566;2022-07-29T09:35:43;23.00;50.30
68764;DHT22;55754;52.038;5.566;2022-07-29T09:38:13;23.00;50.10
68764;DHT22;55754;52.038;5.566;2022-07-29T09:40:39;23.00;49.80
68764;DHT22;55754;52.038;5.566;2022-07-29T09:43:14;22.90;50.00
68764;DHT22;55754;52.038;5.566;2022-07-29T09:45:39;22.90;49.80
68764;DHT22;55754;52.038;5.566;2022-07-29T09:48:20;23.00;50.10
68764;DHT22;55754;52.038;5.566;2022-07-29T09:50:46;22.80;49.30
68764;DHT22;55754;52.038;5.566;2022-07-29T09:53:35;22.70;49.80
68764;DHT22;55754;52.038;5.566;2022-07-29T09:56:02;22.80;49.60
68764;DHT22;55754;52.038;5.566;2022-07-29T09:58:28;22.80;50.20
68764;DHT22;55754;52.038;5.566;2022-07-29T10:00:54;22.90;50.20
68764;DHT22;55754;52.038;5.566;2022-07-29T10:03:20;23.00;50.40
68764;DHT22;55754;52.038;5.566;2022-07-29T10:06:07;22.90;50.10
68764;DHT22;55754;52.038;5.566;2022-07-29T10:08:32;22.90;50.10
68764;DHT22;55754;52.038;5.566;2022-07-29T10:11:14;23.00;50.00
68764;DHT22;55754;52.038;5.566;2022-07-29T10:13:43;23.00;49.70
68764;DHT22;55754;52.038;5.566;2022-07-29T10:16:09;23.00;49.70
68764;DHT22;55754;52.038;5.566;2022-07-29T10:18:34;23.10;49.70
68764;DHT22;55754;52.038;5.566;2022-07-29T10:21:01;23.10;49.30
68764;DHT22;55754;52.038;5.566;2022-07-29T10:23:28;23.20;49.30
68764;DHT22;55754;52.038;5.566;2022-07-29T10:25:54;23.10;49.20
68764;DHT22;55754;52.038;5.566;2022-07-29T10:28:20;23.10;49.20
68764;DHT22;55754;52.038;5.566;2022-07-29T10:30:47;23.10;49.20
68764;DHT22;55754;52.038;5.566;2022-07-29T10:44:39;23.20;49.60
68764;DHT22;55754;52.038;5.566;2022-07-29T10:47:06;23.20;49.30
68764;DHT22;55754;52.038;5.566;2022-07-29T10:49:32;23.30;49.40
68764;DHT22;55754;52.038;5.566;2022-07-29T10:52:08;23.30;49.40
68764;DHT22;55754;52.038;5.566;2022-07-29T10:54:47;23.30;49.50
68764;DHT22;55754;52.038;5.566;2022-07-29T10:57:25;23.40;50.40
68764;DHT22;55754;52.038;5.566;2022-07-29T11:05:19;23.70;48.80
68764;DHT22;55754;52.038;5.566;2022-07-29T11:10:39;23.80;48.80
68764;DHT22;55754;52.038;5.566;2022-07-29T11:13:05;23.80;48.60
68764;DHT22;55754;52.038;5.566;2022-07-29T11:15:52;23.80;48.50
68764;DHT22;55754;52.038;5.566;2022-07-29T11:18:18;23.80;48.50
68764;DHT22;55754;52.038;5.566;2022-07-29T11:20:46;23.90;48.50
68764;DHT22;55754;52.038;5.566;2022-07-29T11:23:28;23.90;48.50
68764;DHT22;55754;52.038;5.566;2022-07-29T11:26:12;24.00;48.30
68764;DHT22;55754;52.038;5.566;2022-07-29T11:28:51;24.10;47.80
68764;DHT22;55754;52.038;5.566;2022-07-29T11:34:26;24.30;48.00
68764;DHT22;55754;52.038;5.566;2022-07-29T11:39:45;24.40;47.40
68764;DHT22;55754;52.038;5.566;2022-07-29T11:45:18;24.60;47.20
68764;DHT22;55754;52.038;5.566;2022-07-29T11:47:49;24.60;47.20
68764;DHT22;55754;52.038;5.566;2022-07-29T11:50:27;24.60;47.00
68764;DHT22;55754;52.038;5.566;2022-07-29T11:52:53;24.50;47.00
68764;DHT22;55754;52.038;5.566;2022-07-29T11:55:20;24.60;47.00
68764;DHT22;55754;52.038;5.566;2022-07-29T11:57:55;24.70;46.90
68764;DHT22;55754;52.038;5.566;2022-07-29T12:02:57;24.90;46.80
68764;DHT22;55754;52.038;5.566;2022-07-29T12:05:31;24.90;46.70
68764;DHT22;55754;52.038;5.566;2022-07-29T12:08:05;25.00;45.80
68764;DHT22;55754;52.038;5.566;2022-07-29T12:10:31;25.00;45.90
68764;DHT22;55754;52.038;5.566;2022-07-29T12:12:57;25.00;45.80
68764;DHT22;55754;52.038;5.566;2022-07-29T12:15:23;25.00;45.40
68764;DHT22;55754;52.038;5.566;2022-07-29T12:17:50;24.90;45.60
68764;DHT22;55754;52.038;5.566;2022-07-29T12:20:24;24.90;45.80
68764;DHT22;55754;52.038;5.566;2022-07-29T12:22:50;24.90;46.00
68764;DHT22;55754;52.038;5.566;2022-07-29T12:25:19;25.00;46.20
68764;DHT22;55754;52.038;5.566;2022-07-29T12:27:45;24.90;46.30
68764;DHT22;55754;52.038;5.566;2022-07-29T12:30:13;25.00;46.50
68764;DHT22;55754;52.038;5.566;2022-07-29T12:32:44;25.00;46.50
68764;DHT22;55754;52.038;5.566;2022-07-29T12:35:17;25.10;46.50
68764;DHT22;55754;52.038;5.566;2022-07-29T12:37:45;25.20;46.40
68764;DHT22;55754;52.038;5.566;2022-07-29T12:40:15;25.20;46.40
68764;DHT22;55754;52.038;5.566;2022-07-29T12:45:29;25.40;46.50
68764;DHT22;55754;52.038;5.566;2022-07-29T12:47:56;25.50;46.30
68764;DHT22;55754;52.038;5.566;2022-07-29T12:50:22;25.60;46.20
68764;DHT22;55754;52.038;5.566;2022-07-29T12:52:47;25.60;46.10
68764;DHT22;55754;52.038;5.566;2022-07-29T12:55:13;25.70;46.10
68764;DHT22;55754;52.038;5.566;2022-07-29T12:57:47;25.80;46.20
68764;DHT22;55754;52.038;5.566;2022-07-29T13:00:14;25.90;45.50
68764;DHT22;55754;52.038;5.566;2022-07-29T13:02:41;25.80;45.40
68764;DHT22;55754;52.038;5.566;2022-07-29T13:05:08;25.90;45.60
68764;DHT22;55754;52.038;5.566;2022-07-29T13:07:34;26.00;45.50
68764;DHT22;55754;52.038;5.566;2022-07-29T13:10:20;26.00;45.50
68764;DHT22;55754;52.038;5.566;2022-07-29T13:13:04;26.00;44.30
68764;DHT22;55754;52.038;5.566;2022-07-29T13:15:30;26.10;44.60
68764;DHT22;55754;52.038;5.566;2022-07-29T13:17:56;26.10;44.90
68764;DHT22;55754;52.038;5.566;2022-07-29T13:20:28;26.10;44.70
68764;DHT22;55754;52.038;5.566;2022-07-29T13:22:59;26.10;44.20
68764;DHT22;55754;52.038;5.566;2022-07-29T13:25:27;26.20;44.00
68764;DHT22;55754;52.038;5.566;2022-07-29T13:27:53;26.20;43.80
68764;DHT22;55754;52.038;5.566;2022-07-29T13:30:20;26.20;43.60
68764;DHT22;55754;52.038;5.566;2022-07-29T13:32:47;26.20;43.60
68764;DHT22;55754;52.038;5.566;2022-07-29T13:35:12;26.20;43.40
68764;DHT22;55754;52.038;5.566;2022-07-29T13:37:39;26.20;43.20
68764;DHT22;55754;52.038;5.566;2022-07-29T13:40:09;26.30;43.30
68764;DHT22;55754;52.038;5.566;2022-07-29T13:42:35;26.30;43.00
68764;DHT22;55754;52.038;5.566;2022-07-29T13:45:01;26.20;42.50
68764;DHT22;55754;52.038;5.566;2022-07-29T13:47:28;26.30;42.50
68764;DHT22;55754;52.038;5.566;2022-07-29T13:49:56;26.40;42.50
68764;DHT22;55754;52.038;5.566;2022-07-29T13:52:22;26.40;42.30
68764;DHT22;55754;52.038;5.566;2022-07-29T13:54:48;26.30;42.20
68764;DHT22;55754;52.038;5.566;2022-07-29T13:57:14;26.40;42.10
68764;DHT22;55754;52.038;5.566;2022-07-29T13:59:43;26.40;41.70
68764;DHT22;55754;52.038;5.566;2022-07-29T14:02:10;26.40;41.30
68764;DHT22;55754;52.038;5.566;2022-07-29T14:04:36;26.40;41.60
68764;DHT22;55754;52.038;5.566;2022-07-29T14:07:02;26.40;42.00
68764;DHT22;55754;52.038;5.566;2022-07-29T14:09:28;26.40;42.40
68764;DHT22;55754;52.038;5.566;2022-07-29T14:11:53;26.40;42.30
68764;DHT22;55754;52.038;5.566;2022-07-29T14:14:20;26.40;42.40
68764;DHT22;55754;52.038;5.566;2022-07-29T14:16:45;26.50;42.00
68764;DHT22;55754;52.038;5.566;2022-07-29T14:19:11;26.40;41.80
68764;DHT22;55754;52.038;5.566;2022-07-29T14:21:38;26.40;41.90
68764;DHT22;55754;52.038;5.566;2022-07-29T14:24:04;26.40;41.60
68764;DHT22;55754;52.038;5.566;2022-07-29T14:26:29;26.40;41.40
68764;DHT22;55754;52.038;5.566;2022-07-29T14:28:55;26.50;41.30
68764;DHT22;55754;52.038;5.566;2022-07-29T14:31:21;26.50;41.00
68764;DHT22;55754;52.038;5.566;2022-07-29T14:33:47;26.40;40.90
68764;DHT22;55754;52.038;5.566;2022-07-29T14:36:12;26.50;40.80
68764;DHT22;55754;52.038;5.566;2022-07-29T14:38:38;26.50;40.50
68764;DHT22;55754;52.038;5.566;2022-07-29T14:41:06;26.50;40.30
68764;DHT22;55754;52.038;5.566;2022-07-29T14:43:31;26.40;40.10
68764;DHT22;55754;52.038;5.566;2022-07-29T14:45:57;26.40;40.40
68764;DHT22;55754;52.038;5.566;2022-07-29T14:48:23;26.50;40.40
68764;DHT22;55754;52.038;5.566;2022-07-29T14:50:48;26.50;40.10
68764;DHT22;55754;52.038;5.566;2022-07-29T14:53:14;26.50;39.80
68764;DHT22;55754;52.038;5.566;2022-07-29T14:55:40;26.50;40.00
68764;DHT22;55754;52.038;5.566;2022-07-29T14:58:06;26.40;40.00
68764;DHT22;55754;52.038;5.566;2022-07-29T15:00:31;26.40;40.30
68764;DHT22;55754;52.038;5.566;2022-07-29T15:02:59;26.30;40.40
68764;DHT22;55754;52.038;5.566;2022-07-29T15:05:26;26.40;40.50
68764;DHT22;55754;52.038;5.566;2022-07-29T15:07:51;26.50;40.50
68764;DHT22;55754;52.038;5.566;2022-07-29T15:10:17;26.40;40.30
68764;DHT22;55754;52.038;5.566;2022-07-29T15:12:43;26.40;40.60
68764;DHT22;55754;52.038;5.566;2022-07-29T15:15:09;26.40;40.50
68764;DHT22;55754;52.038;5.566;2022-07-29T15:17:35;26.40;40.60
68764;DHT22;55754;52.038;5.566;2022-07-29T15:20:01;26.40;40.50
68764;DHT22;55754;52.038;5.566;2022-07-29T15:22:26;26.30;40.50
68764;DHT22;55754;52.038;5.566;2022-07-29T15:24:52;26.30;40.70
68764;DHT22;55754;52.038;5.566;2022-07-29T15:27:18;26.20;40.90
68764;DHT22;55754;52.038;5.566;2022-07-29T15:29:44;26.20;40.30
68764;DHT22;55754;52.038;5.566;2022-07-29T15:32:10;26.10;40.60
68764;DHT22;55754;52.038;5.566;2022-07-29T15:34:37;26.00;40.60
68764;DHT22;55754;52.038;5.566;2022-07-29T15:37:04;26.00;40.80
68764;DHT22;55754;52.038;5.566;2022-07-29T15:39:30;25.90;41.10
68764;DHT22;55754;52.038;5.566;2022-07-29T15:41:55;26.00;41.10
68764;DHT22;55754;52.038;5.566;2022-07-29T15:44:24;26.10;41.20
68764;DHT22;55754;52.038;5.566;2022-07-29T15:46:50;26.00;41.10
68764;DHT22;55754;52.038;5.566;2022-07-29T15:49:31;25.90;41.20
68764;DHT22;55754;52.038;5.566;2022-07-29T15:52:02;25.90;41.40
68764;DHT22;55754;52.038;5.566;2022-07-29T15:54:28;25.90;41.70
68764;DHT22;55754;52.038;5.566;2022-07-29T15:56:54;26.00;41.90
68764;DHT22;55754;52.038;5.566;2022-07-29T15:59:21;26.00;42.00
68764;DHT22;55754;52.038;5.566;2022-07-29T16:01:47;26.00;42.20
68764;DHT22;55754;52.038;5.566;2022-07-29T16:04:13;26.00;42.50
68764;DHT22;55754;52.038;5.566;2022-07-29T16:06:39;25.90;42.40
68764;DHT22;55754;52.038;5.566;2022-07-29T16:09:07;25.90;42.50
68764;DHT22;55754;52.038;5.566;2022-07-29T16:11:33;25.90;42.60
68764;DHT22;55754;52.038;5.566;2022-07-29T16:13:59;25.90;42.80